sensor_id;sensor_type;location;lat;lon;timestamp;temperature;humidity
21830;DHT22;11077;50.264;6.798;2022-11-27T00:01:50;4.00;99.90
21830;DHT22;11077;50.264;6.798;2022-11-27T00:04:18;4.00;99.90
21830;DHT22;11077;50.264;6.798;2022-11-27T00:06:47;3.90;99.90
21830;DHT22;11077;50.264;6.798;2022-11-27T00:09:18;3.90;99.90
21830;DHT22;11077;50.264;6.798;2022-11-27T00:11:47;3.80;99.90
21830;DHT22;11077;50.264;6.798;2022-11-27T00:14:15;3.90;99.90
21830;DHT22;11077;50.264;6.798;2022-11-27T00:16:45;3.90;99.90
21830;DHT22;11077;50.264;6.798;2022-11-27T00:19:13;3.80;99.90
21830;DHT22;11077;50.264;6.798;2022-11-27T00:21:40;3.80;99.90
21830;DHT22;11077;50.264;6.798;2022-11-27T00:24:09;3.70;99.90
21830;DHT22;11077;50.264;6.798;2022-11-27T00:26:36;3.70;99.90
21830;DHT22;11077;50.264;6.798;2022-11-27T00:29:08;3.70;99.90
21830;DHT22;11077;50.264;6.798;2022-11-27T00:31:36;3.70;99.90
21830;DHT22;11077;50.264;6.798;2022-11-27T00:34:05;3.60;99.90
21830;DHT22;11077;50.264;6.798;2022-11-27T00:36:34;3.70;99.90
21830;DHT22;11077;50.264;6.798;2022-11-27T00:39:01;3.70;99.90
21830;DHT22;11077;50.264;6.798;2022-11-27T00:41:29;3.60;99.90
21830;DHT22;11077;50.264;6.798;2022-11-27T00:43:57;3.60;99.90
21830;DHT22;11077;50.264;6.798;2022-11-27T00:46:27;3.60;99.90
21830;DHT22;11077;50.264;6.798;2022-11-27T00:48:55;3.60;99.90
21830;DHT22;11077;50.264;6.798;2022-11-27T00:51:23;3.60;99.90
21830;DHT22;11077;50.264;6.798;2022-11-27T00:53:51;3.60;99.90
21830;DHT22;11077;50.264;6.798;2022-11-27T00:56:20;3.50;99.90
21830;DHT22;11077;50.264;6.798;2022-11-27T00:58:48;3.50;99.90
21830;DHT22;11077;50.264;6.798;2022-11-27T01:01:17;3.50;99.90
21830;DHT22;11077;50.264;6.798;2022-11-27T01:03:47;3.50;99.90
21830;DHT22;11077;50.264;6.798;2022-11-27T01:06:15;3.50;99.90
21830;DHT22;11077;50.264;6.798;2022-11-27T01:08:43;3.50;99.90
21830;DHT22;11077;50.264;6.798;2022-11-27T01:11:13;3.50;99.90
21830;DHT22;11077;50.264;6.798;2022-11-27T01:13:40;3.40;99.90
21830;DHT22;11077;50.264;6.798;2022-11-27T01:16:10;3.40;99.90
21830;DHT22;11077;50.264;6.798;2022-11-27T01:18:39;3.40;99.90
21830;DHT22;11077;50.264;6.798;2022-11-27T01:21:09;3.30;99.90
21830;DHT22;11077;50.264;6.798;2022-11-27T01:23:36;3.30;99.90
21830;DHT22;11077;50.264;6.798;2022-11-27T01:26:07;3.30;99.90
21830;DHT22;11077;50.264;6.798;2022-11-27T01:28:35;3.40;99.90
21830;DHT22;11077;50.264;6.798;2022-11-27T01:31:05;3.30;99.90
21830;DHT22;11077;50.264;6.798;2022-11-27T01:33:33;3.30;99.90
21830;DHT22;11077;50.264;6.798;2022-11-27T01:36:02;3.30;99.90
21830;DHT22;11077;50.264;6.798;2022-11-27T01:38:31;3.30;99.90
21830;DHT22;11077;50.264;6.798;2022-11-27T01:41:01;3.30;99.90
21830;DHT22;11077;50.264;6.798;2022-11-27T01:43:39;3.30;99.90
21830;DHT22;11077;50.264;6.798;2022-11-27T01:46:13;3.30;99.90
21830;DHT22;11077;50.264;6.798;2022-11-27T01:48:45;3.30;99.90
21830;DHT22;11077;50.264;6.798;2022-11-27T01:51:13;3.20;99.90
21830;DHT22;11077;50.264;6.798;2022-11-27T01:53:42;3.30;99.90
21830;DHT22;11077;50.264;6.798;2022-11-27T01:56:10;3.20;99.90
21830;DHT22;11077;50.264;6.798;2022-11-27T01:58:38;3.20;99.90
21830;DHT22;11077;50.264;6.798;2022-11-27T02:01:06;3.20;99.90
21830;DHT22;11077;50.264;6.798;2022-11-27T02:03:34;3.10;99.90
21830;DHT22;11077;50.264;6.798;2022-11-27T02:06:11;3.10;99.90
21830;DHT22;11077;50.264;6.798;2022-11-27T02:08:57;3.10;99.90
21830;DHT22;11077;50.264;6.798;2022-11-27T02:11:30;3.00;99.90
21830;DHT22;11077;50.264;6.798;2022-11-27T02:14:07;3.00;99.90
21830;DHT22;11077;50.264;6.798;2022-11-27T02:17:08;3.00;99.90
21830;DHT22;11077;50.264;6.798;2022-11-27T02:20:01;2.90;99.90
21830;DHT22;11077;50.264;6.798;2022-11-27T02:22:47;2.90;99.90
21830;DHT22;11077;50.264;6.798;2022-11-27T02:25:28;2.90;99.90
21830;DHT22;11077;50.264;6.798;2022-11-27T02:28:10;2.90;99.90
21830;DHT22;11077;50.264;6.798;2022-11-27T02:30:47;2.90;99.90
21830;DHT22;11077;50.264;6.798;2022-11-27T02:33:19;2.90;99.90
21830;DHT22;11077;50.264;6.798;2022-11-27T02:35:49;2.90;99.90
21830;DHT22;11077;50.264;6.798;2022-11-27T02:38:24;2.90;99.90
21830;DHT22;11077;50.264;6.798;2022-11-27T02:40:55;2.90;99.90
21830;DHT22;11077;50.264;6.798;2022-11-27T02:43:31;3.00;99.90
21830;DHT22;11077;50.264;6.798;2022-11-27T02:46:03;3.00;99.90
21830;DHT22;11077;50.264;6.798;2022-11-27T02:48:34;3.00;99.90
21830;DHT22;11077;50.264;6.798;2022-11-27T02:51:04;3.00;99.90
21830;DHT22;11077;50.264;6.798;2022-11-27T02:53:34;3.00;99.90
21830;DHT22;11077;50.264;6.798;2022-11-27T02:56:04;3.00;99.90
21830;DHT22;11077;50.264;6.798;2022-11-27T02:58:35;3.10;99.90
21830;DHT22;11077;50.264;6.798;2022-11-27T03:01:06;3.00;99.90
21830;DHT22;11077;50.264;6.798;2022-11-27T03:03:36;3.00;99.90
21830;DHT22;11077;50.264;6.798;2022-11-27T03:06:08;3.00;99.90
21830;DHT22;11077;50.264;6.798;2022-11-27T03:08:40;3.10;99.90
21830;DHT22;11077;50.264;6.798;2022-11-27T03:11:10;3.00;99.90
21830;DHT22;11077;50.264;6.798;2022-11-27T03:13:40;3.00;99.90
21830;DHT22;11077;50.264;6.798;2022-11-27T03:16:13;3.10;99.90
21830;DHT22;11077;50.264;6.798;2022-11-27T03:18:43;3.10;99.90
21830;DHT22;11077;50.264;6.798;2022-11-27T03:21:23;3.10;99.90
21830;DHT22;11077;50.264;6.798;2022-11-27T03:23:52;3.10;99.90
21830;DHT22;11077;50.264;6.798;2022-11-27T03:26:19;3.10;99.90
21830;DHT22;11077;50.264;6.798;2022-11-27T03:28:47;3.10;99.90
21830;DHT22;11077;50.264;6.798;2022-11-27T03:31:18;3.00;99.90
21830;DHT22;11077;50.264;6.798;2022-11-27T03:33:46;3.00;99.90
21830;DHT22;11077;50.264;6.798;2022-11-27T03:36:15;3.00;99.90
21830;DHT22;11077;50.264;6.798;2022-11-27T03:38:43;3.10;99.90
21830;DHT22;11077;50.264;6.798;2022-11-27T03:41:18;3.10;99.90
21830;DHT22;11077;50.264;6.798;2022-11-27T03:43:54;3.00;99.90
21830;DHT22;11077;50.264;6.798;2022-11-27T03:46:28;3.00;99.90
21830;DHT22;11077;50.264;6.798;2022-11-27T03:49:02;3.00;99.90
21830;DHT22;11077;50.264;6.798;2022-11-27T03:51:37;3.00;99.90
21830;DHT22;11077;50.264;6.798;2022-11-27T03:54:10;3.00;99.90
21830;DHT22;11077;50.264;6.798;2022-11-27T03:56:41;3.00;99.90
21830;DHT22;11077;50.264;6.798;2022-11-27T03:59:14;3.00;99.90
21830;DHT22;11077;50.264;6.798;2022-11-27T04:01:44;3.10;99.90
21830;DHT22;11077;50.264;6.798;2022-11-27T04:04:11;3.10;99.90
21830;DHT22;11077;50.264;6.798;2022-11-27T04:06:39;3.10;99.90
21830;DHT22;11077;50.264;6.798;2022-11-27T04:09:06;3.10;99.90
21830;DHT22;11077;50.264;6.798;2022-11-27T04:11:34;3.10;99.90
21830;DHT22;11077;50.264;6.798;2022-11-27T04:14:01;3.00;99.90
21830;DHT22;11077;50.264;6.798;2022-11-27T04:16:29;3.10;99.90
21830;DHT22;11077;50.264;6.798;2022-11-27T04:18:58;3.10;99.90
21830;DHT22;11077;50.264;6.798;2022-11-27T04:21:25;3.10;99.90
21830;DHT22;11077;50.264;6.798;2022-11-27T04:23:52;3.10;99.90
21830;DHT22;11077;50.264;6.798;2022-11-27T04:26:20;3.10;99.90
21830;DHT22;11077;50.264;6.798;2022-11-27T04:28:48;3.10;99.90
21830;DHT22;11077;50.264;6.798;2022-11-27T04:31:15;3.10;99.90
21830;DHT22;11077;50.264;6.798;2022-11-27T04:33:43;3.10;99.90
21830;DHT22;11077;50.264;6.798;2022-11-27T04:36:13;3.10;99.90
21830;DHT22;11077;50.264;6.798;2022-11-27T04:38:40;3.10;99.90
21830;DHT22;11077;50.264;6.798;2022-11-27T04:41:07;3.10;99.90
21830;DHT22;11077;50.264;6.798;2022-11-27T04:43:35;3.10;99.90
21830;DHT22;11077;50.264;6.798;2022-11-27T04:46:02;3.10;99.90
21830;DHT22;11077;50.264;6.798;2022-11-27T04:48:30;3.10;99.90
21830;DHT22;11077;50.264;6.798;2022-11-27T04:50:57;3.10;99.90
21830;DHT22;11077;50.264;6.798;2022-11-27T04:53:26;3.00;99.90
21830;DHT22;11077;50.264;6.798;2022-11-27T04:55:56;3.00;99.90
21830;DHT22;11077;50.264;6.798;2022-11-27T04:58:23;3.00;99.90
21830;DHT22;11077;50.264;6.798;2022-11-27T05:00:51;3.00;99.90
21830;DHT22;11077;50.264;6.798;2022-11-27T05:03:18;3.00;99.90
21830;DHT22;11077;50.264;6.798;2022-11-27T05:05:53;3.10;99.90
21830;DHT22;11077;50.264;6.798;2022-11-27T05:08:21;3.00;99.90
21830;DHT22;11077;50.264;6.798;2022-11-27T05:10:59;3.00;99.90
21830;DHT22;11077;50.264;6.798;2022-11-27T05:13:26;3.10;99.90
21830;DHT22;11077;50.264;6.798;2022-11-27T05:15:54;3.00;99.90
21830;DHT22;11077;50.264;6.798;2022-11-27T05:18:21;3.10;99.90
21830;DHT22;11077;50.264;6.798;2022-11-27T05:20:55;3.00;99.90
21830;DHT22;11077;50.264;6.798;2022-11-27T05:23:23;3.00;99.90
21830;DHT22;11077;50.264;6.798;2022-11-27T05:25:51;3.10;99.90
21830;DHT22;11077;50.264;6.798;2022-11-27T05:28:31;3.00;99.90
21830;DHT22;11077;50.264;6.798;2022-11-27T05:30:59;3.00;99.90
21830;DHT22;11077;50.264;6.798;2022-11-27T05:33:27;3.00;99.90
21830;DHT22;11077;50.264;6.798;2022-11-27T05:36:08;3.00;99.90
21830;DHT22;11077;50.264;6.798;2022-11-27T05:38:42;3.00;99.90
21830;DHT22;11077;50.264;6.798;2022-11-27T05:41:09;3.00;99.90
21830;DHT22;11077;50.264;6.798;2022-11-27T05:43:38;3.00;99.90
21830;DHT22;11077;50.264;6.798;2022-11-27T05:46:10;2.90;99.90
21830;DHT22;11077;50.264;6.798;2022-11-27T05:48:39;2.90;99.90
21830;DHT22;11077;50.264;6.798;2022-11-27T05:51:06;2.90;99.90
21830;DHT22;11077;50.264;6.798;2022-11-27T05:53:34;2.90;99.90
21830;DHT22;11077;50.264;6.798;2022-11-27T05:56:02;2.90;99.90
21830;DHT22;11077;50.264;6.798;2022-11-27T05:58:30;2.90;99.90
21830;DHT22;11077;50.264;6.798;2022-11-27T06:00:59;2.90;99.90
21830;DHT22;11077;50.264;6.798;2022-11-27T06:03:30;2.90;99.90
21830;DHT22;11077;50.264;6.798;2022-11-27T06:06:05;2.90;99.90
21830;DHT22;11077;50.264;6.798;2022-11-27T06:08:39;2.90;99.90
21830;DHT22;11077;50.264;6.798;2022-11-27T06:11:20;2.90;99.90
21830;DHT22;11077;50.264;6.798;2022-11-27T06:14:09;2.90;99.90
21830;DHT22;11077;50.264;6.798;2022-11-27T06:16:42;2.90;99.90
21830;DHT22;11077;50.264;6.798;2022-11-27T06:19:13;2.90;99.90
21830;DHT22;11077;50.264;6.798;2022-11-27T06:21:44;2.90;99.90
21830;DHT22;11077;50.264;6.798;2022-11-27T06:24:12;2.90;99.90
21830;DHT22;11077;50.264;6.798;2022-11-27T06:26:40;2.90;99.90
21830;DHT22;11077;50.264;6.798;2022-11-27T06:29:08;2.80;99.90
21830;DHT22;11077;50.264;6.798;2022-11-27T06:31:35;2.80;99.90
21830;DHT22;11077;50.264;6.798;2022-11-27T06:34:05;2.80;99.90
21830;DHT22;11077;50.264;6.798;2022-11-27T06:36:33;2.80;99.90
21830;DHT22;11077;50.264;6.798;2022-11-27T06:39:03;2.90;99.90
21830;DHT22;11077;50.264;6.798;2022-11-27T06:41:31;2.80;99.90
21830;DHT22;11077;50.264;6.798;2022-11-27T06:43:59;2.80;99.90
21830;DHT22;11077;50.264;6.798;2022-11-27T06:46:27;2.80;99.90
21830;DHT22;11077;50.264;6.798;2022-11-27T06:48:55;2.80;99.90
21830;DHT22;11077;50.264;6.798;2022-11-27T06:51:26;2.80;99.90
21830;DHT22;11077;50.264;6.798;2022-11-27T06:54:05;2.80;99.90
21830;DHT22;11077;50.264;6.798;2022-11-27T06:56:32;2.80;99.90
21830;DHT22;11077;50.264;6.798;2022-11-27T06:59:01;2.80;99.90
21830;DHT22;11077;50.264;6.798;2022-11-27T07:01:29;2.70;99.90
21830;DHT22;11077;50.264;6.798;2022-11-27T07:03:57;2.80;99.90
21830;DHT22;11077;50.264;6.798;2022-11-27T07:06:28;2.80;99.90
21830;DHT22;11077;50.264;6.798;2022-11-27T07:08:59;2.80;99.90
21830;DHT22;11077;50.264;6.798;2022-11-27T07:11:28;2.80;99.90
21830;DHT22;11077;50.264;6.798;2022-11-27T07:13:57;2.80;99.90
21830;DHT22;11077;50.264;6.798;2022-11-27T07:16:26;2.70;99.90
21830;DHT22;11077;50.264;6.798;2022-11-27T07:18:54;2.70;99.90
21830;DHT22;11077;50.264;6.798;2022-11-27T07:21:23;2.70;99.90
21830;DHT22;11077;50.264;6.798;2022-11-27T07:23:52;2.70;99.90
21830;DHT22;11077;50.264;6.798;2022-11-27T07:26:23;2.70;99.90
21830;DHT22;11077;50.264;6.798;2022-11-27T07:28:51;2.80;99.90
21830;DHT22;11077;50.264;6.798;2022-11-27T07:31:20;2.80;99.90
21830;DHT22;11077;50.264;6.798;2022-11-27T07:33:48;2.80;99.90
21830;DHT22;11077;50.264;6.798;2022-11-27T07:36:19;2.90;99.90
21830;DHT22;11077;50.264;6.798;2022-11-27T07:38:47;2.80;99.90
21830;DHT22;11077;50.264;6.798;2022-11-27T07:41:16;2.90;99.90
21830;DHT22;11077;50.264;6.798;2022-11-27T07:43:44;2.90;99.90
21830;DHT22;11077;50.264;6.798;2022-11-27T07:46:15;2.90;99.90
21830;DHT22;11077;50.264;6.798;2022-11-27T07:48:43;2.90;99.90
21830;DHT22;11077;50.264;6.798;2022-11-27T07:51:12;2.90;99.90
21830;DHT22;11077;50.264;6.798;2022-11-27T07:53:44;2.90;99.90
21830;DHT22;11077;50.264;6.798;2022-11-27T07:56:16;2.90;99.90
21830;DHT22;11077;50.264;6.798;2022-11-27T07:58:44;3.00;99.90
21830;DHT22;11077;50.264;6.798;2022-11-27T08:01:13;3.00;99.90
21830;DHT22;11077;50.264;6.798;2022-11-27T08:03:41;3.00;99.90
21830;DHT22;11077;50.264;6.798;2022-11-27T08:06:14;3.00;99.90
21830;DHT22;11077;50.264;6.798;2022-11-27T08:08:42;3.00;99.90
21830;DHT22;11077;50.264;6.798;2022-11-27T08:11:20;3.00;99.90
21830;DHT22;11077;50.264;6.798;2022-11-27T08:13:48;3.00;99.90
21830;DHT22;11077;50.264;6.798;2022-11-27T08:16:16;3.10;99.90
21830;DHT22;11077;50.264;6.798;2022-11-27T08:18:43;3.00;99.90
21830;DHT22;11077;50.264;6.798;2022-11-27T08:21:11;3.10;99.90
21830;DHT22;11077;50.264;6.798;2022-11-27T08:23:39;3.20;99.90
21830;DHT22;11077;50.264;6.798;2022-11-27T08:26:07;3.20;99.90
21830;DHT22;11077;50.264;6.798;2022-11-27T08:28:37;3.20;99.90
21830;DHT22;11077;50.264;6.798;2022-11-27T08:31:06;3.20;99.90
21830;DHT22;11077;50.264;6.798;2022-11-27T08:33:35;3.20;99.90
21830;DHT22;11077;50.264;6.798;2022-11-27T08:36:03;3.20;99.90
21830;DHT22;11077;50.264;6.798;2022-11-27T08:38:31;3.30;99.90
21830;DHT22;11077;50.264;6.798;2022-11-27T08:41:00;3.20;99.90
21830;DHT22;11077;50.264;6.798;2022-11-27T08:43:28;3.30;99.90
21830;DHT22;11077;50.264;6.798;2022-11-27T08:45:58;3.30;99.90
21830;DHT22;11077;50.264;6.798;2022-11-27T08:48:26;3.40;99.90
21830;DHT22;11077;50.264;6.798;2022-11-27T08:50:54;3.50;99.90
21830;DHT22;11077;50.264;6.798;2022-11-27T08:53:22;3.50;99.90
21830;DHT22;11077;50.264;6.798;2022-11-27T08:55:49;3.50;99.90
21830;DHT22;11077;50.264;6.798;2022-11-27T08:58:17;3.60;99.90
21830;DHT22;11077;50.264;6.798;2022-11-27T09:00:44;3.60;99.90
21830;DHT22;11077;50.264;6.798;2022-11-27T09:03:13;3.70;99.90
21830;DHT22;11077;50.264;6.798;2022-11-27T09:05:41;3.80;99.90
21830;DHT22;11077;50.264;6.798;2022-11-27T09:08:10;3.80;99.90
21830;DHT22;11077;50.264;6.798;2022-11-27T09:10:41;3.80;99.90
21830;DHT22;11077;50.264;6.798;2022-11-27T09:13:08;3.80;99.90
21830;DHT22;11077;50.264;6.798;2022-11-27T09:15:36;3.80;99.90
21830;DHT22;11077;50.264;6.798;2022-11-27T09:18:03;3.90;99.90
21830;DHT22;11077;50.264;6.798;2022-11-27T09:20:32;3.90;99.90
21830;DHT22;11077;50.264;6.798;2022-11-27T09:23:00;3.90;99.90
21830;DHT22;11077;50.264;6.798;2022-11-27T09:25:29;4.00;99.90
21830;DHT22;11077;50.264;6.798;2022-11-27T09:28:00;4.00;99.90
21830;DHT22;11077;50.264;6.798;2022-11-27T09:30:28;4.00;99.90
21830;DHT22;11077;50.264;6.798;2022-11-27T09:32:55;4.10;99.90
21830;DHT22;11077;50.264;6.798;2022-11-27T09:35:23;4.10;99.90
21830;DHT22;11077;50.264;6.798;2022-11-27T09:37:52;4.10;99.90
21830;DHT22;11077;50.264;6.798;2022-11-27T09:40:19;4.10;99.90
21830;DHT22;11077;50.264;6.798;2022-11-27T09:42:50;4.20;99.90
21830;DHT22;11077;50.264;6.798;2022-11-27T09:45:20;4.20;99.90
21830;DHT22;11077;50.264;6.798;2022-11-27T09:47:50;4.30;99.90
21830;DHT22;11077;50.264;6.798;2022-11-27T09:50:21;4.30;99.90
21830;DHT22;11077;50.264;6.798;2022-11-27T09:52:55;4.40;99.90
21830;DHT22;11077;50.264;6.798;2022-11-27T09:55:25;4.50;99.90
21830;DHT22;11077;50.264;6.798;2022-11-27T09:57:59;4.60;99.90
21830;DHT22;11077;50.264;6.798;2022-11-27T10:00:28;4.70;99.90
21830;DHT22;11077;50.264;6.798;2022-11-27T10:02:56;4.70;99.90
21830;DHT22;11077;50.264;6.798;2022-11-27T10:05:25;4.80;99.90
21830;DHT22;11077;50.264;6.798;2022-11-27T10:08:16;4.80;99.90
21830;DHT22;11077;50.264;6.798;2022-11-27T10:11:04;4.90;99.90
21830;DHT22;11077;50.264;6.798;2022-11-27T10:13:46;4.90;99.90
21830;DHT22;11077;50.264;6.798;2022-11-27T10:16:22;4.90;99.90
21830;DHT22;11077;50.264;6.798;2022-11-27T10:18:54;5.00;99.90
21830;DHT22;11077;50.264;6.798;2022-11-27T10:21:29;5.00;99.90
21830;DHT22;11077;50.264;6.798;2022-11-27T10:24:04;5.00;99.90
21830;DHT22;11077;50.264;6.798;2022-11-27T10:26:39;5.00;99.90
21830;DHT22;11077;50.264;6.798;2022-11-27T10:29:13;5.10;99.90
21830;DHT22;11077;50.264;6.798;2022-11-27T10:31:49;5.10;99.90
21830;DHT22;11077;50.264;6.798;2022-11-27T10:34:25;5.10;99.90
21830;DHT22;11077;50.264;6.798;2022-11-27T10:36:55;5.20;99.90
21830;DHT22;11077;50.264;6.798;2022-11-27T10:39:29;5.20;99.90
21830;DHT22;11077;50.264;6.798;2022-11-27T10:42:02;5.20;99.90
21830;DHT22;11077;50.264;6.798;2022-11-27T10:44:37;5.20;99.90
21830;DHT22;11077;50.264;6.798;2022-11-27T10:47:08;5.20;99.90
21830;DHT22;11077;50.264;6.798;2022-11-27T10:49:38;5.30;99.90
21830;DHT22;11077;50.264;6.798;2022-11-27T10:52:11;5.30;99.90
21830;DHT22;11077;50.264;6.798;2022-11-27T10:54:41;5.30;99.90
21830;DHT22;11077;50.264;6.798;2022-11-27T10:57:37;5.30;99.90
21830;DHT22;11077;50.264;6.798;2022-11-27T11:00:10;5.30;99.90
21830;DHT22;11077;50.264;6.798;2022-11-27T11:02:40;5.40;99.90
21830;DHT22;11077;50.264;6.798;2022-11-27T11:05:22;5.40;99.90
21830;DHT22;11077;50.264;6.798;2022-11-27T11:07:59;5.30;99.90
21830;DHT22;11077;50.264;6.798;2022-11-27T11:10:35;5.30;99.90
21830;DHT22;11077;50.264;6.798;2022-11-27T11:13:14;5.40;99.90
21830;DHT22;11077;50.264;6.798;2022-11-27T11:15:52;5.30;99.90
21830;DHT22;11077;50.264;6.798;2022-11-27T11:18:21;5.40;99.90
21830;DHT22;11077;50.264;6.798;2022-11-27T11:20:50;5.40;99.90
21830;DHT22;11077;50.264;6.798;2022-11-27T11:23:28;5.40;99.90
21830;DHT22;11077;50.264;6.798;2022-11-27T11:26:02;5.50;99.90
21830;DHT22;11077;50.264;6.798;2022-11-27T11:28:34;5.60;99.90
21830;DHT22;11077;50.264;6.798;2022-11-27T11:31:12;5.60;99.90
21830;DHT22;11077;50.264;6.798;2022-11-27T11:33:49;5.60;99.90
21830;DHT22;11077;50.264;6.798;2022-11-27T11:36:17;5.60;99.90
21830;DHT22;11077;50.264;6.798;2022-11-27T11:38:45;5.70;99.90
21830;DHT22;11077;50.264;6.798;2022-11-27T11:41:16;5.60;99.90
21830;DHT22;11077;50.264;6.798;2022-11-27T11:43:54;5.70;99.90
21830;DHT22;11077;50.264;6.798;2022-11-27T11:46:23;5.70;99.90
21830;DHT22;11077;50.264;6.798;2022-11-27T11:48:53;5.70;99.90
21830;DHT22;11077;50.264;6.798;2022-11-27T11:54:24;5.70;99.90
21830;DHT22;11077;50.264;6.798;2022-11-27T11:56:57;5.70;99.90
21830;DHT22;11077;50.264;6.798;2022-11-27T11:59:32;5.70;99.90
21830;DHT22;11077;50.264;6.798;2022-11-27T12:05:19;5.70;99.90
21830;DHT22;11077;50.264;6.798;2022-11-27T12:08:19;5.60;99.90
21830;DHT22;11077;50.264;6.798;2022-11-27T12:10:57;5.60;99.90
21830;DHT22;11077;50.264;6.798;2022-11-27T12:13:41;5.60;99.90
21830;DHT22;11077;50.264;6.798;2022-11-27T12:16:18;5.60;99.90
21830;DHT22;11077;50.264;6.798;2022-11-27T12:19:01;5.60;99.90
21830;DHT22;11077;50.264;6.798;2022-11-27T12:21:40;5.60;99.90
21830;DHT22;11077;50.264;6.798;2022-11-27T12:24:22;5.60;99.90
21830;DHT22;11077;50.264;6.798;2022-11-27T12:27:00;5.60;99.90
21830;DHT22;11077;50.264;6.798;2022-11-27T12:29:49;5.60;99.90
21830;DHT22;11077;50.264;6.798;2022-11-27T12:32:32;5.70;99.90
21830;DHT22;11077;50.264;6.798;2022-11-27T12:35:21;5.70;99.90
21830;DHT22;11077;50.264;6.798;2022-11-27T12:37:56;5.70;99.90
21830;DHT22;11077;50.264;6.798;2022-11-27T12:40:38;5.60;99.90
21830;DHT22;11077;50.264;6.798;2022-11-27T12:43:16;5.70;99.90
21830;DHT22;11077;50.264;6.798;2022-11-27T12:45:52;5.60;99.90
21830;DHT22;11077;50.264;6.798;2022-11-27T12:48:23;5.60;99.90
21830;DHT22;11077;50.264;6.798;2022-11-27T12:50:55;5.60;99.90
21830;DHT22;11077;50.264;6.798;2022-11-27T12:53:28;5.60;99.90
21830;DHT22;11077;50.264;6.798;2022-11-27T12:56:05;5.60;99.90
21830;DHT22;11077;50.264;6.798;2022-11-27T12:58:37;5.50;99.90
21830;DHT22;11077;50.264;6.798;2022-11-27T13:01:11;5.50;99.90
21830;DHT22;11077;50.264;6.798;2022-11-27T13:03:45;5.50;99.90
21830;DHT22;11077;50.264;6.798;2022-11-27T13:06:17;5.40;99.90
21830;DHT22;11077;50.264;6.798;2022-11-27T13:08:49;5.40;99.90
21830;DHT22;11077;50.264;6.798;2022-11-27T13:11:24;5.40;99.90
21830;DHT22;11077;50.264;6.798;2022-11-27T13:13:56;5.40;99.90
21830;DHT22;11077;50.264;6.798;2022-11-27T13:16:30;5.40;99.90
21830;DHT22;11077;50.264;6.798;2022-11-27T13:19:04;5.30;99.90
21830;DHT22;11077;50.264;6.798;2022-11-27T13:21:34;5.30;99.90
21830;DHT22;11077;50.264;6.798;2022-11-27T13:24:02;5.30;99.90
21830;DHT22;11077;50.264;6.798;2022-11-27T13:26:34;5.30;99.90
21830;DHT22;11077;50.264;6.798;2022-11-27T13:29:05;5.30;99.90
21830;DHT22;11077;50.264;6.798;2022-11-27T13:31:36;5.30;99.90
21830;DHT22;11077;50.264;6.798;2022-11-27T13:34:06;5.40;99.90
21830;DHT22;11077;50.264;6.798;2022-11-27T13:36:37;5.40;99.90
21830;DHT22;11077;50.264;6.798;2022-11-27T13:39:05;5.40;99.90
21830;DHT22;11077;50.264;6.798;2022-11-27T13:41:35;5.40;99.90
21830;DHT22;11077;50.264;6.798;2022-11-27T13:44:05;5.40;99.90
21830;DHT22;11077;50.264;6.798;2022-11-27T13:46:46;5.40;99.90
21830;DHT22;11077;50.264;6.798;2022-11-27T13:49:23;5.40;99.90
21830;DHT22;11077;50.264;6.798;2022-11-27T13:52:09;5.40;99.90
21830;DHT22;11077;50.264;6.798;2022-11-27T13:54:37;5.40;99.90
21830;DHT22;11077;50.264;6.798;2022-11-27T13:57:09;5.40;99.90
21830;DHT22;11077;50.264;6.798;2022-11-27T13:59:37;5.40;99.90
21830;DHT22;11077;50.264;6.798;2022-11-27T14:02:07;5.40;99.90
21830;DHT22;11077;50.264;6.798;2022-11-27T14:04:34;5.40;99.90
21830;DHT22;11077;50.264;6.798;2022-11-27T14:07:03;5.50;99.90
21830;DHT22;11077;50.264;6.798;2022-11-27T14:09:35;5.40;99.90
21830;DHT22;11077;50.264;6.798;2022-11-27T14:12:14;5.40;99.90
21830;DHT22;11077;50.264;6.798;2022-11-27T14:14:42;5.50;99.90
21830;DHT22;11077;50.264;6.798;2022-11-27T14:17:25;5.50;99.90
21830;DHT22;11077;50.264;6.798;2022-11-27T14:19:59;5.40;99.90
21830;DHT22;11077;50.264;6.798;2022-11-27T14:22:34;5.40;99.90
21830;DHT22;11077;50.264;6.798;2022-11-27T14:25:16;5.50;99.90
21830;DHT22;11077;50.264;6.798;2022-11-27T14:27:44;5.40;99.90
21830;DHT22;11077;50.264;6.798;2022-11-27T14:30:21;5.40;99.90
21830;DHT22;11077;50.264;6.798;2022-11-27T14:32:50;5.40;99.90
21830;DHT22;11077;50.264;6.798;2022-11-27T14:35:19;5.40;99.90
21830;DHT22;11077;50.264;6.798;2022-11-27T14:37:47;5.40;99.90
21830;DHT22;11077;50.264;6.798;2022-11-27T14:40:17;5.40;99.90
21830;DHT22;11077;50.264;6.798;2022-11-27T14:42:45;5.40;99.90
21830;DHT22;11077;50.264;6.798;2022-11-27T14:45:15;5.30;99.90
21830;DHT22;11077;50.264;6.798;2022-11-27T14:47:47;5.30;99.90
21830;DHT22;11077;50.264;6.798;2022-11-27T14:50:17;5.30;99.90
21830;DHT22;11077;50.264;6.798;2022-11-27T14:52:48;5.30;99.90
21830;DHT22;11077;50.264;6.798;2022-11-27T14:55:17;5.30;99.90
21830;DHT22;11077;50.264;6.798;2022-11-27T14:57:47;5.30;99.90
21830;DHT22;11077;50.264;6.798;2022-11-27T15:00:18;5.40;99.90
21830;DHT22;11077;50.264;6.798;2022-11-27T15:02:48;5.30;99.90
21830;DHT22;11077;50.264;6.798;2022-11-27T15:05:19;5.30;99.90
21830;DHT22;11077;50.264;6.798;2022-11-27T15:07:48;5.30;99.90
21830;DHT22;11077;50.264;6.798;2022-11-27T15:10:31;5.30;99.90
21830;DHT22;11077;50.264;6.798;2022-11-27T15:13:01;5.30;99.90
21830;DHT22;11077;50.264;6.798;2022-11-27T15:15:31;5.30;99.90
21830;DHT22;11077;50.264;6.798;2022-11-27T15:18:02;5.20;99.90
21830;DHT22;11077;50.264;6.798;2022-11-27T15:20:37;5.20;99.90
21830;DHT22;11077;50.264;6.798;2022-11-27T15:23:14;5.20;99.90
21830;DHT22;11077;50.264;6.798;2022-11-27T15:25:45;5.20;99.90
21830;DHT22;11077;50.264;6.798;2022-11-27T15:28:27;5.10;99.90
21830;DHT22;11077;50.264;6.798;2022-11-27T15:30:55;5.10;99.90
21830;DHT22;11077;50.264;6.798;2022-11-27T15:33:24;5.10;99.90
21830;DHT22;11077;50.264;6.798;2022-11-27T15:36:07;5.00;99.90
21830;DHT22;11077;50.264;6.798;2022-11-27T15:38:39;5.00;99.90
21830;DHT22;11077;50.264;6.798;2022-11-27T15:41:18;4.90;99.90
21830;DHT22;11077;50.264;6.798;2022-11-27T15:43:46;4.90;99.90
21830;DHT22;11077;50.264;6.798;2022-11-27T15:46:21;4.80;99.90
21830;DHT22;11077;50.264;6.798;2022-11-27T15:48:49;4.90;99.90
21830;DHT22;11077;50.264;6.798;2022-11-27T15:51:18;4.80;99.90
21830;DHT22;11077;50.264;6.798;2022-11-27T15:53:45;4.80;99.90
21830;DHT22;11077;50.264;6.798;2022-11-27T15:56:13;4.80;99.90
21830;DHT22;11077;50.264;6.798;2022-11-27T15:58:41;4.80;99.90
21830;DHT22;11077;50.264;6.798;2022-11-27T16:01:09;4.80;99.90
21830;DHT22;11077;50.264;6.798;2022-11-27T16:03:42;4.80;99.90
21830;DHT22;11077;50.264;6.798;2022-11-27T16:06:09;4.70;99.90
21830;DHT22;11077;50.264;6.798;2022-11-27T16:08:38;4.70;99.90
21830;DHT22;11077;50.264;6.798;2022-11-27T16:11:07;4.70;99.90
21830;DHT22;11077;50.264;6.798;2022-11-27T16:13:36;4.70;99.90
21830;DHT22;11077;50.264;6.798;2022-11-27T16:16:04;4.70;99.90
21830;DHT22;11077;50.264;6.798;2022-11-27T16:18:32;4.70;99.90